Time,TemperatureF,DewpointF,PressureIn,WindDirection,WindDirectionDegrees,WindSpeedMPH,WindSpeedGustMPH,Humidity,HourlyPrecipIn,Conditions,Clouds,dailyrainin,SoftwareType,DateUTC
2013-06-22 00:00:00,65.7,60.4,30.15,ENE,65,0.0,1.0,83,0.00,,,0.00,Wunderground v.1.13,2013-06-22 04:00:00,
2013-06-22 00:05:00,65.7,60.4,30.15,ENE,64,0.0,0.0,83,0.00,,,0.00,Wunderground v.1.13,2013-06-22 04:05:00,
2013-06-22 00:10:00,65.7,60.7,30.15,ENE,65,0.0,0.0,84,0.00,,,0.00,Wunderground v.1.13,2013-06-22 04:10:00,
2013-06-22 00:15:00,65.6,60.6,30.15,ENE,65,0.0,0.0,84,0.00,,,0.00,Wunderground v.1.13,2013-06-22 04:15:00,
2013-06-22 00:25:00,65.5,60.5,30.15,ENE,65,0.0,0.0,84,0.00,,,0.00,Wunderground v.1.13,2013-06-22 04:25:00,
2013-06-22 00:30:00,65.5,60.9,30.15,ENE,64,0.0,0.0,85,0.00,,,0.00,Wunderground v.1.13,2013-06-22 04:30:00,
2013-06-22 00:40:00,65.3,60.7,30.15,ENE,65,0.0,0.0,85,0.00,,,0.00,Wunderground v.1.13,2013-06-22 04:40:00,
2013-06-22 00:45:00,65.2,60.6,30.15,ENE,64,0.0,0.0,85,0.00,,,0.00,Wunderground v.1.13,2013-06-22 04:45:00,
2013-06-22 00:55:00,64.9,60.3,30.15,ENE,65,0.0,0.0,85,0.00,,,0.00,Wunderground v.1.13,2013-06-22 04:55:00,
2013-06-22 01:10:00,64.7,60.4,30.15,ENE,65,0.0,0.0,86,0.00,,,0.00,Wunderground v.1.13,2013-06-22 05:10:00,
2013-06-22 01:20:00,64.5,60.2,30.16,ENE,64,0.0,0.0,86,0.00,,,0.00,Wunderground v.1.13,2013-06-22 05:20:00,
2013-06-22 01:30:00,64.3,60.3,30.16,ENE,64,0.0,0.0,87,0.00,,,0.00,Wunderground v.1.13,2013-06-22 05:30:00,
2013-06-22 01:40:00,64.2,60.2,30.16,ENE,65,0.0,0.0,87,0.00,,,0.00,Wunderground v.1.13,2013-06-22 05:40:00,
2013-06-22 01:45:00,64.1,60.2,30.16,ENE,65,0.0,0.0,87,0.00,,,0.00,Wunderground v.1.13,2013-06-22 05:45:00,
2013-06-22 01:55:00,64.0,60.4,30.16,ENE,65,0.0,0.0,88,0.00,,,0.00,Wunderground v.1.13,2013-06-22 05:55:00,
2013-06-22 02:05:00,63.8,60.2,30.15,ENE,64,0.0,0.0,88,0.00,,,0.00,Wunderground v.1.13,2013-06-22 06:05:00,
2013-06-22 02:14:00,63.6,60.0,30.15,ENE,64,0.0,0.0,88,0.00,,,0.00,Wunderground v.1.13,2013-06-22 06:14:00,
2013-06-22 02:20:00,63.6,60.0,30.15,ENE,65,0.0,0.0,88,0.00,,,0.00,Wunderground v.1.13,2013-06-22 06:20:00,
2013-06-22 02:25:00,63.5,59.9,30.15,ENE,65,0.0,0.0,88,0.00,,,0.00,Wunderground v.1.13,2013-06-22 06:25:00,
2013-06-22 02:35:00,63.3,60.0,30.15,ENE,65,0.0,0.0,89,0.00,,,0.00,Wunderground v.1.13,2013-06-22 06:35:00,
2013-06-22 02:40:00,63.2,59.9,30.15,ENE,65,0.0,0.0,89,0.00,,,0.00,Wunderground v.1.13,2013-06-22 06:40:00,
2013-06-22 02:45:00,63.2,59.9,30.15,ENE,64,0.0,0.0,89,0.00,,,0.00,Wunderground v.1.13,2013-06-22 06:45:00,
2013-06-22 02:50:00,63.1,59.8,30.15,ENE,65,0.0,0.0,89,0.00,,,0.00,Wunderground v.1.13,2013-06-22 06:50:00,
2013-06-22 03:00:00,62.9,59.6,30.15,ENE,65,0.0,0.0,89,0.00,,,0.00,Wunderground v.1.13,2013-06-22 07:00:00,
2013-06-22 03:05:00,62.9,59.6,30.14,ENE,65,0.0,0.0,89,0.00,,,0.00,Wunderground v.1.13,2013-06-22 07:05:00,
2013-06-22 03:15:00,62.7,59.7,30.14,ENE,65,0.0,0.0,90,0.00,,,0.00,Wunderground v.1.13,2013-06-22 07:15:00,
2013-06-22 03:25:00,62.5,59.5,30.14,ENE,65,0.0,0.0,90,0.00,,,0.00,Wunderground v.1.13,2013-06-22 07:25:00,
2013-06-22 03:35:00,62.4,59.4,30.14,ENE,65,0.0,0.0,90,0.00,,,0.00,Wunderground v.1.13,2013-06-22 07:35:00,
2013-06-22 03:45:00,62.4,59.4,30.13,ENE,65,0.0,0.0,90,0.00,,,0.00,Wunderground v.1.13,2013-06-22 07:45:00,
2013-06-22 03:50:00,62.3,59.3,30.13,ENE,64,0.0,0.0,90,0.00,,,0.00,Wunderground v.1.13,2013-06-22 07:50:00,
2013-06-22 03:55:00,62.3,59.3,30.13,ENE,65,0.0,0.0,90,0.00,,,0.00,Wunderground v.1.13,2013-06-22 07:55:00,
2013-06-22 04:05:00,62.1,59.4,30.13,ENE,64,0.0,0.0,91,0.00,,,0.00,Wunderground v.1.13,2013-06-22 08:05:00,
2013-06-22 04:15:00,62.0,59.3,30.13,ENE,65,0.0,0.0,91,0.00,,,0.00,Wunderground v.1.13,2013-06-22 08:15:00,
2013-06-22 04:20:00,62.0,59.3,30.13,ENE,64,0.0,0.0,91,0.00,,,0.00,Wunderground v.1.13,2013-06-22 08:20:00,
2013-06-22 04:25:00,61.9,59.2,30.13,ENE,64,0.0,0.0,91,0.00,,,0.00,Wunderground v.1.13,2013-06-22 08:25:00,
2013-06-22 04:30:00,61.9,59.2,30.13,ENE,65,0.0,0.0,91,0.00,,,0.00,Wunderground v.1.13,2013-06-22 08:30:00,
2013-06-22 04:40:00,61.8,59.1,30.13,ENE,65,0.0,0.0,91,0.00,,,0.00,Wunderground v.1.13,2013-06-22 08:40:00,
2013-06-22 04:45:00,61.7,59.0,30.13,ENE,65,0.0,0.0,91,0.00,,,0.00,Wunderground v.1.13,2013-06-22 08:45:00,
2013-06-22 04:50:00,61.7,59.0,30.13,ENE,64,0.0,0.0,91,0.00,,,0.00,Wunderground v.1.13,2013-06-22 08:50:00,
2013-06-22 04:55:00,61.6,58.9,30.12,ENE,64,0.0,0.0,91,0.00,,,0.00,Wunderground v.1.13,2013-06-22 08:55:00,
2013-06-22 05:05:00,61.6,58.9,30.12,ENE,65,0.0,0.0,91,0.00,,,0.00,Wunderground v.1.13,2013-06-22 09:05:00,
2013-06-22 05:15:00,61.5,58.8,30.12,ENE,65,0.0,0.0,91,0.00,,,0.00,Wunderground v.1.13,2013-06-22 09:15:00,
2013-06-22 05:25:00,61.5,58.8,30.12,ENE,65,0.0,0.0,91,0.00,,,0.00,Wunderground v.1.13,2013-06-22 09:25:00,
2013-06-22 05:30:00,61.4,58.7,30.12,ENE,65,0.0,0.0,91,0.00,,,0.00,Wunderground v.1.13,2013-06-22 09:30:00,
2013-06-22 05:40:00,61.2,58.6,30.12,ENE,64,0.0,0.0,91,0.00,,,0.00,Wunderground v.1.13,2013-06-22 09:40:00,
2013-06-22 05:45:00,61.1,58.8,30.12,ENE,65,0.0,0.0,92,0.00,,,0.00,Wunderground v.1.13,2013-06-22 09:45:00,
2013-06-22 05:55:00,61.0,58.7,30.13,ENE,65,0.0,1.0,92,0.00,,,0.00,Wunderground v.1.13,2013-06-22 09:55:00,
2013-06-22 06:00:00,60.9,58.6,30.12,ENE,65,0.0,1.0,92,0.00,,,0.00,Wunderground v.1.13,2013-06-22 10:00:00,
2013-06-22 06:05:00,60.9,58.6,30.13,ENE,65,0.0,0.0,92,0.00,,,0.00,Wunderground v.1.13,2013-06-22 10:05:00,
2013-06-22 06:15:00,60.9,58.6,30.13,ENE,65,0.0,0.0,92,0.00,,,0.00,Wunderground v.1.13,2013-06-22 10:15:00,
2013-06-22 06:24:00,60.9,58.6,30.13,ENE,65,0.0,0.0,92,0.00,,,0.00,Wunderground v.1.13,2013-06-22 10:24:00,
2013-06-22 06:29:00,61.0,58.7,30.13,East,86,0.0,0.0,92,0.00,,,0.00,Wunderground v.1.13,2013-06-22 10:29:00,
2013-06-22 06:40:00,61.1,58.8,30.13,East,86,0.0,0.0,92,0.00,,,0.00,Wunderground v.1.13,2013-06-22 10:40:00,
2013-06-22 06:45:00,61.1,58.8,30.13,East,86,0.0,0.0,92,0.00,,,0.00,Wunderground v.1.13,2013-06-22 10:45:00,
2013-06-22 06:55:00,61.1,59.1,30.13,East,86,0.0,0.0,93,0.00,,,0.00,Wunderground v.1.13,2013-06-22 10:55:00,
2013-06-22 07:00:00,61.1,59.1,30.14,East,86,0.0,0.0,93,0.00,,,0.00,Wunderground v.1.13,2013-06-22 11:00:00,
2013-06-22 07:05:00,61.1,59.1,30.14,East,86,0.0,0.0,93,0.00,,,0.00,Wunderground v.1.13,2013-06-22 11:05:00,
2013-06-22 07:15:00,61.3,59.3,30.14,East,86,0.0,0.0,93,0.00,,,0.00,Wunderground v.1.13,2013-06-22 11:15:00,
2013-06-22 07:20:00,61.3,59.3,30.14,East,86,0.0,0.0,93,0.00,,,0.00,Wunderground v.1.13,2013-06-22 11:20:00,
2013-06-22 07:30:00,61.5,59.5,30.14,East,87,0.0,0.0,93,0.00,,,0.00,Wunderground v.1.13,2013-06-22 11:30:00,
2013-06-22 07:40:00,61.9,59.9,30.15,East,87,0.0,0.0,93,0.00,,,0.00,Wunderground v.1.13,2013-06-22 11:40:00,
2013-06-22 07:45:00,62.1,60.1,30.15,East,87,0.0,0.0,93,0.00,,,0.00,Wunderground v.1.13,2013-06-22 11:45:00,
2013-06-22 07:50:00,62.3,60.2,30.16,East,87,0.0,0.0,93,0.00,,,0.00,Wunderground v.1.13,2013-06-22 11:50:00,
2013-06-22 08:00:00,63.1,61.3,30.16,South,189,0.0,0.0,94,0.00,,,0.00,Wunderground v.1.13,2013-06-22 12:00:00,
2013-06-22 08:05:00,63.4,61.6,30.16,South,189,0.0,0.0,94,0.00,,,0.00,Wunderground v.1.13,2013-06-22 12:05:00,
2013-06-22 08:15:00,63.9,62.1,30.16,South,189,0.0,0.0,94,0.00,,,0.00,Wunderground v.1.13,2013-06-22 12:15:00,
2013-06-22 08:25:00,64.6,62.8,30.16,South,189,0.0,0.0,94,0.00,,,0.00,Wunderground v.1.13,2013-06-22 12:25:00,
2013-06-22 08:35:00,65.6,63.8,30.16,South,188,0.0,0.0,94,0.00,,,0.00,Wunderground v.1.13,2013-06-22 12:35:00,
2013-06-22 08:45:00,66.8,65.3,30.17,South,188,0.0,0.0,95,0.00,,,0.00,Wunderground v.1.13,2013-06-22 12:45:00,
2013-06-22 08:54:00,67.8,66.0,30.17,South,189,0.0,1.0,94,0.00,,,0.00,Wunderground v.1.13,2013-06-22 12:54:00,
2013-06-22 09:00:00,68.4,66.6,30.17,South,188,0.0,0.0,94,0.00,,,0.00,Wunderground v.1.13,2013-06-22 13:00:00,
2013-06-22 09:05:00,69.2,67.4,30.17,South,188,0.0,0.0,94,0.00,,,0.00,Wunderground v.1.13,2013-06-22 13:05:00,
2013-06-22 09:15:00,70.9,68.5,30.18,South,189,0.0,0.0,92,0.00,,,0.00,Wunderground v.1.13,2013-06-22 13:15:00,
2013-06-22 09:24:00,73.0,67.9,30.18,SSE,155,1.0,1.0,84,0.00,,,0.00,Wunderground v.1.13,2013-06-22 13:24:00,
2013-06-22 09:30:00,73.4,66.9,30.18,SW,215,1.0,2.0,80,0.00,,,0.00,Wunderground v.1.13,2013-06-22 13:30:00,
2013-06-22 09:40:00,74.3,67.0,30.18,SSW,203,1.0,2.0,78,0.00,,,0.00,Wunderground v.1.13,2013-06-22 13:40:00,
2013-06-22 09:50:00,75.0,67.7,30.18,WSW,257,1.0,1.0,78,0.00,,,0.00,Wunderground v.1.13,2013-06-22 13:50:00,
2013-06-22 10:00:00,76.0,67.9,30.18,SSW,213,1.0,2.0,76,0.00,,,0.00,Wunderground v.1.13,2013-06-22 14:00:00,
2013-06-22 10:05:00,76.1,67.6,30.17,West,263,2.0,2.0,75,0.00,,,0.00,Wunderground v.1.13,2013-06-22 14:05:00,
2013-06-22 10:15:00,76.7,68.2,30.17,SSE,155,1.0,4.0,75,0.00,,,0.00,Wunderground v.1.13,2013-06-22 14:15:00,
2013-06-22 10:25:00,78.0,69.4,30.17,NNW,338,0.0,0.0,75,0.00,,,0.00,Wunderground v.1.13,2013-06-22 14:25:00,
2013-06-22 10:35:00,78.7,69.3,30.17,SSW,194,1.0,1.0,73,0.00,,,0.00,Wunderground v.1.13,2013-06-22 14:35:00,
2013-06-22 10:45:00,78.5,69.5,30.17,West,268,2.0,2.0,74,0.00,,,0.00,Wunderground v.1.13,2013-06-22 14:45:00,
2013-06-22 10:50:00,78.9,69.9,30.17,South,178,1.0,4.0,74,0.00,,,0.00,Wunderground v.1.13,2013-06-22 14:50:00,
2013-06-22 10:59:00,79.3,69.5,30.17,South,183,1.0,1.0,72,0.00,,,0.00,Wunderground v.1.13,2013-06-22 14:59:00,
2013-06-22 11:05:00,79.8,69.6,30.17,South,186,1.0,1.0,71,0.00,,,0.00,Wunderground v.1.13,2013-06-22 15:05:00,
2013-06-22 11:15:00,81.1,71.6,30.17,South,184,1.0,1.0,73,0.00,,,0.00,Wunderground v.1.13,2013-06-22 15:15:00,
2013-06-22 11:25:00,81.5,70.8,30.17,WSW,258,1.0,2.0,70,0.00,,,0.00,Wunderground v.1.13,2013-06-22 15:25:00,
2013-06-22 11:34:00,81.4,70.7,30.17,SW,232,2.0,2.0,70,0.00,,,0.00,Wunderground v.1.13,2013-06-22 15:34:00,
2013-06-22 11:45:00,81.6,70.4,30.16,West,271,2.0,2.0,69,0.00,,,0.00,Wunderground v.1.13,2013-06-22 15:45:00,
2013-06-22 11:55:00,82.3,71.1,30.16,SW,229,1.0,1.0,69,0.00,,,0.00,Wunderground v.1.13,2013-06-22 15:55:00,
2013-06-22 12:00:00,82.6,71.0,30.16,South,183,2.0,2.0,68,0.00,,,0.00,Wunderground v.1.13,2013-06-22 16:00:00,
2013-06-22 12:05:00,83.0,71.3,30.16,SW,214,2.0,2.0,68,0.00,,,0.00,Wunderground v.1.13,2013-06-22 16:05:00,
2013-06-22 12:14:00,83.5,70.9,30.16,SE,137,1.0,2.0,66,0.00,,,0.00,Wunderground v.1.13,2013-06-22 16:14:00,
2013-06-22 12:20:00,83.7,72.0,30.16,SW,218,1.0,1.0,68,0.00,,,0.00,Wunderground v.1.13,2013-06-22 16:20:00,
2013-06-22 12:30:00,84.1,71.1,30.16,WNW,284,2.0,3.0,65,0.00,,,0.00,Wunderground v.1.13,2013-06-22 16:30:00,
2013-06-22 12:35:00,84.1,72.0,30.16,SSE,157,2.0,2.0,67,0.00,,,0.00,Wunderground v.1.13,2013-06-22 16:35:00,
2013-06-22 12:45:00,83.9,71.3,30.16,SSE,168,2.0,2.0,66,0.00,,,0.00,Wunderground v.1.13,2013-06-22 16:45:00,
2013-06-22 12:50:00,84.0,71.4,30.16,WNW,302,2.0,3.0,66,0.00,,,0.00,Wunderground v.1.13,2013-06-22 16:50:00,
2013-06-22 12:55:00,84.2,72.0,30.16,WSW,249,2.0,3.0,67,0.00,,,0.00,Wunderground v.1.13,2013-06-22 16:55:00,
2013-06-22 13:05:00,85.1,71.5,30.15,WSW,254,2.0,3.0,64,0.00,,,0.00,Wunderground v.1.13,2013-06-22 17:05:00,
2013-06-22 13:15:00,84.8,71.3,30.15,WSW,257,2.0,2.0,64,0.00,,,0.00,Wunderground v.1.13,2013-06-22 17:15:00,
2013-06-22 13:20:00,84.7,71.6,30.15,South,184,2.0,2.0,65,0.00,,,0.00,Wunderground v.1.13,2013-06-22 17:20:00,
2013-06-22 13:25:00,84.3,71.2,30.14,ESE,122,2.0,4.0,65,0.00,,,0.00,Wunderground v.1.13,2013-06-22 17:25:00,
2013-06-22 13:30:00,84.5,71.0,30.14,South,179,2.0,2.0,64,0.00,,,0.00,Wunderground v.1.13,2013-06-22 17:30:00,
2013-06-22 13:35:00,84.9,71.8,30.13,SSE,149,2.0,4.0,65,0.00,,,0.00,Wunderground v.1.13,2013-06-22 17:35:00,
2013-06-22 13:45:00,85.0,71.5,30.13,WSW,250,4.0,4.0,64,0.00,,,0.00,Wunderground v.1.13,2013-06-22 17:45:00,
2013-06-22 13:55:00,85.7,71.7,30.13,South,187,2.0,5.0,63,0.00,,,0.00,Wunderground v.1.13,2013-06-22 17:55:00,
2013-06-22 14:00:00,85.7,71.7,30.13,SSE,163,2.0,5.0,63,0.00,,,0.00,Wunderground v.1.13,2013-06-22 18:00:00,
2013-06-22 14:05:00,85.4,71.4,30.13,SE,134,3.0,4.0,63,0.00,,,0.00,Wunderground v.1.13,2013-06-22 18:05:00,
2013-06-22 14:15:00,85.9,71.4,30.13,SSW,200,3.0,3.0,62,0.00,,,0.00,Wunderground v.1.13,2013-06-22 18:15:00,
2013-06-22 14:20:00,85.8,71.7,30.13,SSE,160,2.0,2.0,63,0.00,,,0.00,Wunderground v.1.13,2013-06-22 18:20:00,
2013-06-22 14:30:00,86.5,72.4,30.13,WSW,237,2.0,4.0,63,0.00,,,0.00,Wunderground v.1.13,2013-06-22 18:30:00,
2013-06-22 14:35:00,86.3,71.3,30.13,West,259,3.0,4.0,61,0.00,,,0.00,Wunderground v.1.13,2013-06-22 18:35:00,
2013-06-22 14:40:00,86.2,71.2,30.13,West,279,3.0,4.0,61,0.00,,,0.00,Wunderground v.1.13,2013-06-22 18:40:00,
2013-06-22 14:45:00,86.3,71.7,30.13,WNW,302,4.0,4.0,62,0.00,,,0.00,Wunderground v.1.13,2013-06-22 18:45:00,
2013-06-22 14:50:00,86.3,71.3,30.13,WSW,252,4.0,4.0,61,0.00,,,0.00,Wunderground v.1.13,2013-06-22 18:50:00,
2013-06-22 14:55:00,86.2,71.2,30.12,SSE,158,3.0,3.0,61,0.00,,,0.00,Wunderground v.1.13,2013-06-22 18:55:00,
2013-06-22 15:05:00,86.2,71.6,30.12,South,173,3.0,3.0,62,0.00,,,0.00,Wunderground v.1.13,2013-06-22 19:05:00,
2013-06-22 15:15:00,87.3,71.7,30.11,WNW,282,3.0,3.0,60,0.00,,,0.00,Wunderground v.1.13,2013-06-22 19:15:00,
2013-06-22 15:25:00,87.1,71.5,30.11,SE,134,2.0,7.0,60,0.00,,,0.00,Wunderground v.1.13,2013-06-22 19:25:00,
2013-06-22 15:35:00,86.4,70.9,30.11,SE,135,3.0,3.0,60,0.00,,,0.00,Wunderground v.1.13,2013-06-22 19:35:00,
2013-06-22 15:40:00,86.3,70.8,30.11,WSW,248,3.0,5.0,60,0.00,,,0.00,Wunderground v.1.13,2013-06-22 19:40:00,
2013-06-22 15:45:00,86.8,71.2,30.11,SSE,148,3.0,4.0,60,0.00,,,0.00,Wunderground v.1.13,2013-06-22 19:45:00,
2013-06-22 15:50:00,86.9,70.3,30.10,West,265,2.0,6.0,58,0.00,,,0.00,Wunderground v.1.13,2013-06-22 19:50:00,
2013-06-22 15:55:00,86.6,71.5,30.10,ESE,118,2.0,2.0,61,0.00,,,0.00,Wunderground v.1.13,2013-06-22 19:55:00,
2013-06-22 16:00:00,86.6,72.0,30.10,SSE,154,2.0,2.0,62,0.00,,,0.00,Wunderground v.1.13,2013-06-22 20:00:00,
2013-06-22 16:05:00,86.7,71.6,30.10,SSE,163,2.0,2.0,61,0.00,,,0.00,Wunderground v.1.13,2013-06-22 20:05:00,
2013-06-22 16:15:00,87.5,72.4,30.09,South,172,1.0,1.0,61,0.00,,,0.00,Wunderground v.1.13,2013-06-22 20:15:00,
2013-06-22 16:24:00,88.2,72.6,30.09,SSE,159,2.0,2.0,60,0.00,,,0.00,Wunderground v.1.13,2013-06-22 20:24:00,
2013-06-22 16:30:00,87.8,71.2,30.09,SSW,213,2.0,2.0,58,0.00,,,0.00,Wunderground v.1.13,2013-06-22 20:30:00,
2013-06-22 16:40:00,87.4,71.8,30.08,West,273,2.0,2.0,60,0.00,,,0.00,Wunderground v.1.13,2013-06-22 20:40:00,
2013-06-22 16:45:00,87.2,71.6,30.08,SE,128,2.0,4.0,60,0.00,,,0.00,Wunderground v.1.13,2013-06-22 20:45:00,
2013-06-22 16:55:00,86.8,73.2,30.07,SE,140,2.0,2.0,64,0.00,,,0.00,Wunderground v.1.13,2013-06-22 20:55:00,
2013-06-22 17:00:00,87.1,73.0,30.07,SSW,199,2.0,7.0,63,0.00,,,0.00,Wunderground v.1.13,2013-06-22 21:00:00,
2013-06-22 17:05:00,87.2,72.1,30.07,SE,125,2.0,3.0,61,0.00,,,0.00,Wunderground v.1.13,2013-06-22 21:05:00,
2013-06-22 17:15:00,86.6,71.5,30.06,SSW,195,2.0,6.0,61,0.00,,,0.00,Wunderground v.1.13,2013-06-22 21:15:00,
2013-06-22 17:25:00,86.3,71.3,30.05,SSE,153,3.0,3.0,61,0.00,,,0.00,Wunderground v.1.13,2013-06-22 21:25:00,
2013-06-22 17:30:00,86.5,72.4,30.05,SE,144,2.0,2.0,63,0.00,,,0.00,Wunderground v.1.13,2013-06-22 21:30:00,
2013-06-22 17:40:00,86.7,72.1,30.04,SSE,154,1.0,1.0,62,0.00,,,0.00,Wunderground v.1.13,2013-06-22 21:40:00,
2013-06-22 17:45:00,87.1,71.5,30.04,SSE,156,1.0,1.0,60,0.00,,,0.00,Wunderground v.1.13,2013-06-22 21:45:00,
2013-06-22 17:50:00,87.1,73.0,30.04,WSW,249,2.0,2.0,63,0.00,,,0.00,Wunderground v.1.13,2013-06-22 21:50:00,
2013-06-22 18:00:00,87.0,71.9,30.04,South,175,1.0,7.0,61,0.00,,,0.00,Wunderground v.1.13,2013-06-22 22:00:00,
2013-06-22 18:05:00,87.0,72.4,30.04,SSE,149,1.0,1.0,62,0.00,,,0.00,Wunderground v.1.13,2013-06-22 22:05:00,
2013-06-22 18:15:00,87.3,73.6,30.03,SE,136,0.0,1.0,64,0.00,,,0.00,Wunderground v.1.13,2013-06-22 22:15:00,
2013-06-22 18:20:00,87.2,73.5,30.03,SE,141,1.0,1.0,64,0.00,,,0.00,Wunderground v.1.13,2013-06-22 22:20:00,
2013-06-22 18:25:00,87.1,71.5,30.03,SSE,165,1.0,3.0,60,0.00,,,0.00,Wunderground v.1.13,2013-06-22 22:25:00,
2013-06-22 18:30:00,86.9,72.3,30.03,SW,225,1.0,1.0,62,0.00,,,0.00,Wunderground v.1.13,2013-06-22 22:30:00,
2013-06-22 18:35:00,87.3,72.7,30.03,SW,225,1.0,1.0,62,0.00,,,0.00,Wunderground v.1.13,2013-06-22 22:35:00,
2013-06-22 18:40:00,87.7,72.6,30.03,SW,225,1.0,1.0,61,0.00,,,0.00,Wunderground v.1.13,2013-06-22 22:40:00,
2013-06-22 18:50:00,87.3,72.7,30.03,SW,217,1.0,3.0,62,0.00,,,0.00,Wunderground v.1.13,2013-06-22 22:50:00,
2013-06-22 18:55:00,87.1,71.5,30.03,SW,235,1.0,3.0,60,0.00,,,0.00,Wunderground v.1.13,2013-06-22 22:55:00,
2013-06-22 19:00:00,87.0,72.9,30.03,NNW,341,1.0,3.0,63,0.00,,,0.00,Wunderground v.1.13,2013-06-22 23:00:00,
2013-06-22 19:05:00,86.5,71.9,30.03,SSW,212,1.0,1.0,62,0.00,,,0.00,Wunderground v.1.13,2013-06-22 23:05:00,
2013-06-22 19:15:00,86.1,71.6,30.04,WNW,290,0.0,2.0,62,0.00,,,0.00,Wunderground v.1.13,2013-06-22 23:15:00,
2013-06-22 19:25:00,85.5,71.9,30.04,South,180,1.0,1.0,64,0.00,,,0.00,Wunderground v.1.13,2013-06-22 23:25:00,
2013-06-22 19:35:00,85.0,71.5,30.04,South,180,1.0,2.0,64,0.00,,,0.00,Wunderground v.1.13,2013-06-22 23:35:00,
2013-06-22 19:40:00,84.7,71.6,30.04,South,180,1.0,1.0,65,0.00,,,0.00,Wunderground v.1.13,2013-06-22 23:40:00,
2013-06-22 19:45:00,84.4,71.3,30.05,South,180,1.0,1.0,65,0.00,,,0.00,Wunderground v.1.13,2013-06-22 23:45:00,
2013-06-22 19:50:00,84.1,71.5,30.05,SE,130,1.0,1.0,66,0.00,,,0.00,Wunderground v.1.13,2013-06-22 23:50:00,
2013-06-22 19:55:00,83.8,71.2,30.05,SE,130,0.0,4.0,66,0.00,,,0.00,Wunderground v.1.13,2013-06-22 23:55:00,
2013-06-22 20:00:00,83.6,71.5,30.05,SE,130,0.0,4.0,67,0.00,,,0.00,Wunderground v.1.13,2013-06-23 00:00:00,
2013-06-22 20:05:00,83.2,71.5,30.05,SE,130,0.0,0.0,68,0.00,,,0.00,Wunderground v.1.13,2013-06-23 00:05:00,
2013-06-22 20:15:00,82.6,72.2,30.04,SE,130,0.0,0.0,71,0.00,,,0.00,Wunderground v.1.13,2013-06-23 00:15:00,
2013-06-22 20:20:00,82.2,71.4,30.04,SE,130,0.0,0.0,70,0.00,,,0.00,Wunderground v.1.13,2013-06-23 00:20:00,
2013-06-22 20:30:00,81.2,70.9,30.05,SE,130,0.0,0.0,71,0.00,,,0.00,Wunderground v.1.13,2013-06-23 00:30:00,
2013-06-22 20:40:00,80.5,71.0,30.05,SE,130,0.0,0.0,73,0.00,,,0.00,Wunderground v.1.13,2013-06-23 00:40:00,
2013-06-22 20:45:00,80.2,70.8,30.05,SE,130,0.0,0.0,73,0.00,,,0.00,Wunderground v.1.13,2013-06-23 00:45:00,
2013-06-22 20:50:00,79.9,70.9,30.05,SE,130,0.0,1.0,74,0.00,,,0.00,Wunderground v.1.13,2013-06-23 00:50:00,
2013-06-22 20:55:00,79.5,70.5,30.05,SE,130,0.0,1.0,74,0.00,,,0.00,Wunderground v.1.13,2013-06-23 00:55:00,
2013-06-22 21:05:00,78.8,70.2,30.06,SE,130,0.0,0.0,75,0.00,,,0.00,Wunderground v.1.13,2013-06-23 01:05:00,
2013-06-22 21:15:00,78.2,69.6,30.06,SE,130,0.0,0.0,75,0.00,,,0.00,Wunderground v.1.13,2013-06-23 01:15:00,
2013-06-22 21:20:00,77.9,69.7,30.06,SE,130,0.0,0.0,76,0.00,,,0.00,Wunderground v.1.13,2013-06-23 01:20:00,
2013-06-22 21:25:00,77.7,69.5,30.06,SE,130,0.0,0.0,76,0.00,,,0.00,Wunderground v.1.13,2013-06-23 01:25:00,
2013-06-22 21:30:00,77.3,69.5,30.06,SE,130,0.0,0.0,77,0.00,,,0.00,Wunderground v.1.13,2013-06-23 01:30:00,
2013-06-22 21:35:00,77.1,69.7,30.06,SE,130,0.0,0.0,78,0.00,,,0.00,Wunderground v.1.13,2013-06-23 01:35:00,
2013-06-22 21:40:00,76.9,69.5,30.06,SE,130,0.0,0.0,78,0.00,,,0.00,Wunderground v.1.13,2013-06-23 01:40:00,
2013-06-22 21:45:00,76.7,69.3,30.07,SE,130,0.0,0.0,78,0.00,,,0.00,Wunderground v.1.13,2013-06-23 01:45:00,
2013-06-22 21:50:00,76.4,69.4,30.07,SE,130,0.0,0.0,79,0.00,,,0.00,Wunderground v.1.13,2013-06-23 01:50:00,
2013-06-22 21:55:00,76.2,69.2,30.07,SE,130,0.0,0.0,79,0.00,,,0.00,Wunderground v.1.13,2013-06-23 01:55:00,
2013-06-22 22:00:00,76.0,69.4,30.08,SE,130,0.0,0.0,80,0.00,,,0.00,Wunderground v.1.13,2013-06-23 02:00:00,
2013-06-22 22:05:00,75.8,69.2,30.08,SE,130,0.0,0.0,80,0.00,,,0.00,Wunderground v.1.13,2013-06-23 02:05:00,
2013-06-22 22:15:00,75.4,69.2,30.08,SE,130,0.0,0.0,81,0.00,,,0.00,Wunderground v.1.13,2013-06-23 02:15:00,
2013-06-22 22:20:00,75.2,69.0,30.08,SE,130,0.0,0.0,81,0.00,,,0.00,Wunderground v.1.13,2013-06-23 02:20:00,
2013-06-22 22:25:00,75.0,68.8,30.08,SE,130,0.0,0.0,81,0.00,,,0.00,Wunderground v.1.13,2013-06-23 02:25:00,
2013-06-22 22:30:00,74.9,69.0,30.08,SE,130,0.0,0.0,82,0.00,,,0.00,Wunderground v.1.13,2013-06-23 02:30:00,
2013-06-22 22:35:00,74.5,69.0,30.08,SE,130,0.0,0.0,83,0.00,,,0.00,Wunderground v.1.13,2013-06-23 02:35:00,
2013-06-22 22:45:00,74.1,69.0,30.08,SE,130,0.0,0.0,84,0.00,,,0.00,Wunderground v.1.13,2013-06-23 02:45:00,
2013-06-22 22:50:00,74.1,69.3,30.08,SE,130,0.0,0.0,85,0.00,,,0.00,Wunderground v.1.13,2013-06-23 02:50:00,
2013-06-22 22:55:00,73.9,69.1,30.08,SE,130,0.0,0.0,85,0.00,,,0.00,Wunderground v.1.13,2013-06-23 02:55:00,
2013-06-22 23:00:00,73.7,68.9,30.08,SE,130,0.0,0.0,85,0.00,,,0.00,Wunderground v.1.13,2013-06-23 03:00:00,
2013-06-22 23:05:00,73.7,68.9,30.08,SE,130,0.0,0.0,85,0.00,,,0.00,Wunderground v.1.13,2013-06-23 03:05:00,
2013-06-22 23:15:00,73.5,69.1,30.08,SE,130,0.0,0.0,86,0.00,,,0.00,Wunderground v.1.13,2013-06-23 03:15:00,
2013-06-22 23:20:00,73.4,69.0,30.08,SE,130,0.0,0.0,86,0.00,,,0.00,Wunderground v.1.13,2013-06-23 03:20:00,
2013-06-22 23:25:00,73.3,69.2,30.08,SE,130,0.0,0.0,87,0.00,,,0.00,Wunderground v.1.13,2013-06-23 03:25:00,
2013-06-22 23:30:00,73.1,68.7,30.08,SE,130,0.0,0.0,86,0.00,,,0.00,Wunderground v.1.13,2013-06-23 03:30:00,
2013-06-22 23:35:00,72.9,68.5,30.08,SE,130,0.0,0.0,86,0.00,,,0.00,Wunderground v.1.13,2013-06-23 03:35:00,
2013-06-22 23:40:00,72.7,68.3,30.08,SE,130,0.0,0.0,86,0.00,,,0.00,Wunderground v.1.13,2013-06-23 03:40:00,
2013-06-22 23:50:00,72.4,68.3,30.09,SE,130,0.0,0.0,87,0.00,,,0.00,Wunderground v.1.13,2013-06-23 03:50:00,
2013-06-22 23:55:00,72.3,68.2,30.09,SE,130,0.0,0.0,87,0.00,,,0.00,Wunderground v.1.13,2013-06-23 03:55:00,